createdAt,value
2022-09-15T00:03:20.624Z,86.40341
2022-09-15T00:13:21.939Z,86.16007
2022-09-15T00:23:23.316Z,86.1196
2022-09-15T00:33:24.365Z,84.79859
2022-09-15T00:43:25.675Z,85.32625
2022-09-15T00:53:26.741Z,86.14289
2022-09-15T01:03:27.729Z,86.8647
2022-09-15T01:13:28.718Z,87.56653
2022-09-15T01:23:29.988Z,87.77366
2022-09-15T01:33:32.149Z,88.05738
2022-09-15T01:43:34.189Z,87.88621
2022-09-15T01:53:36.090Z,87.41257
2022-09-15T02:03:37.119Z,87.42097
2022-09-15T02:13:38.389Z,86.48244
2022-09-15T02:23:39.418Z,85.01932
2022-09-15T02:33:40.419Z,84.73424
2022-09-15T02:43:41.627Z,88.59914
2022-09-15T02:53:42.900Z,88.3407
2022-09-15T03:03:44.525Z,88.59536
2022-09-15T03:13:45.530Z,88.0837
2022-09-15T03:23:46.492Z,88.69017
2022-09-15T03:33:47.730Z,83.61058
2022-09-15T03:43:48.997Z,79.50874
2022-09-15T03:53:50.074Z,79.3415
2022-09-15T04:03:51.503Z,80.12989
2022-09-15T04:13:52.778Z,80.11028
2022-09-15T04:23:54.405Z,78.44632
2022-09-15T04:33:56.545Z,77.21477
2022-09-15T04:43:57.804Z,79.45272
2022-09-15T04:53:58.983Z,80.55236
2022-09-15T05:04:00.254Z,77.37372
2022-09-15T05:14:01.613Z,76.8455
2022-09-15T05:24:03.064Z,76.7019
2022-09-15T05:34:05.345Z,78.35011
2022-09-15T05:44:07.256Z,74.25199
2022-09-15T05:54:09.146Z,75.97446
2022-09-15T06:04:10.090Z,74.96912
2022-09-15T06:14:11.339Z,77.30163
2022-09-15T06:24:12.392Z,76.5701
2022-09-15T06:34:13.473Z,77.37777
2022-09-15T06:44:15.020Z,77.84784
2022-09-15T06:54:16.944Z,79.17243
2022-09-15T07:04:18.202Z,81.23621
2022-09-15T07:14:20.035Z,81.04107
2022-09-15T07:24:21.287Z,80.67265
2022-09-15T07:34:22.280Z,79.97538
2022-09-15T07:44:23.730Z,78.89925
2022-09-15T07:54:24.982Z,78.45343
2022-09-15T08:04:26.184Z,78.41824
2022-09-15T08:14:27.607Z,78.13922
2022-09-15T08:24:28.512Z,77.66529
2022-09-15T08:34:29.800Z,75.24163
2022-09-15T08:44:31.481Z,73.76764
2022-09-15T08:54:33.610Z,71.61684
2022-09-15T09:04:34.869Z,73.9805
2022-09-15T09:14:36.493Z,73.79798
2022-09-15T09:24:37.555Z,72.19133
2022-09-15T09:34:39.316Z,71.67567
2022-09-15T09:44:41.297Z,70.52778
2022-09-15T09:54:43.257Z,66.79831
2022-09-15T10:04:44.563Z,65.24242
2022-09-15T10:14:45.682Z,66.52746
2022-09-15T10:24:46.957Z,64.3694
2022-09-15T10:34:48.219Z,61.94963
2022-09-15T10:44:49.270Z,61.66081
2022-09-15T10:54:50.209Z,62.49436
2022-09-15T11:04:51.777Z,61.82647
2022-09-15T11:14:53.061Z,63.08582
2022-09-15T11:24:54.926Z,58.99359
2022-09-15T11:34:56.200Z,58.24924
2022-09-15T11:44:57.353Z,57.64616
2022-09-15T11:54:58.629Z,50.5965
2022-09-15T12:04:59.707Z,47.31218
2022-09-15T12:15:00.956Z,67.28986
2022-09-15T12:25:02.668Z,68.04233
2022-09-15T12:35:03.706Z,78.35011
2022-09-15T12:45:05.606Z,65.68565
2022-09-15T12:55:07.693Z,72.43812
2022-09-15T13:05:08.658Z,71.70922
2022-09-15T13:15:10.489Z,69.86501
2022-09-15T13:25:12.509Z,65.66182
2022-09-15T13:35:18.421Z,65.06488
2022-09-15T13:45:21.620Z,63.35255
2022-09-15T13:55:23.129Z,62.34389
2022-09-15T14:05:24.419Z,63.10921
2022-09-15T14:15:26.246Z,68.92372
2022-09-15T14:25:28.265Z,63.8156
2022-09-15T14:35:30.186Z,64.65665
2022-09-15T14:46:00.387Z,63.532
2022-09-15T14:56:08.190Z,65.9846
2022-09-15T15:06:28.502Z,65.64999
2022-09-15T15:16:30.329Z,67.14675
2022-09-15T15:26:31.850Z,64.08767
2022-09-15T15:36:34.070Z,64.27022
2022-09-15T15:46:35.025Z,65.20179
2022-09-15T15:56:38.001Z,65.67819
2022-09-15T16:06:39.464Z,63.91515
2022-09-15T16:16:40.387Z,65.03571
2022-09-15T16:26:41.759Z,65.46072
2022-09-15T16:36:43.458Z,67.28796
2022-09-15T16:46:44.797Z,68.18411
2022-09-15T16:56:46.592Z,70.10833
2022-09-15T17:06:47.884Z,71.11612
2022-09-15T17:16:48.852Z,70.10784
2022-09-15T17:26:50.658Z,70.24086
2022-09-15T17:36:51.947Z,67.43083
2022-09-15T17:46:53.062Z,64.52933
2022-09-15T17:56:54.591Z,64.9236
2022-09-15T18:06:56.493Z,67.22704
2022-09-15T18:16:57.760Z,66.60784
2022-09-15T18:26:59.059Z,68.51442
2022-09-15T18:37:00.320Z,69.79991
2022-09-15T18:47:01.526Z,69.34417
2022-09-15T18:57:03.273Z,70.95005
2022-09-15T19:07:05.204Z,70.69896
2022-09-15T19:17:06.297Z,70.30775
2022-09-15T19:27:07.537Z,73.31087
2022-09-15T19:37:13.070Z,75.04055
2022-09-15T19:47:17.048Z,76.26812
2022-09-15T19:57:18.315Z,77.27984
2022-09-15T20:07:19.378Z,77.97138
2022-09-15T20:17:20.380Z,78.1453
2022-09-15T20:27:21.339Z,78.13328
2022-09-15T20:37:22.617Z,78.24155
2022-09-15T20:47:23.554Z,79.02661
2022-09-15T20:57:25.796Z,79.67173
2022-09-15T21:07:26.787Z,80.44873
2022-09-15T21:17:28.065Z,80.79267
2022-09-15T21:27:29.735Z,81.13573
2022-09-15T21:37:31.287Z,81.29186
2022-09-15T21:47:32.243Z,81.27255
2022-09-15T21:57:33.576Z,81.82466
2022-09-15T22:07:34.865Z,82.27697
2022-09-15T22:17:36.597Z,83.4949
2022-09-15T22:27:38.189Z,84.04078
2022-09-15T22:37:39.382Z,84.37979
2022-09-15T22:47:41.267Z,84.31961
2022-09-15T22:57:43.315Z,83.97769
2022-09-15T23:07:44.984Z,83.98539
2022-09-15T23:17:46.213Z,83.87658
2022-09-15T23:27:47.480Z,83.66063
2022-09-15T23:37:48.980Z,83.8378
2022-09-15T23:47:50.752Z,84.27361
2022-09-15T23:57:52.110Z,85.46535
